Evansdale, Iowa
Current Conditions -  °F | °C
As of 8:54 PM on Monday 22 Dec 2014 (Local Time) from KALO Reporting Station
Light Rain Light Rain  
Wind Chill: 28°   Ceiling: 200
Heat Index: 35°   Visibility: 1.2mi
Dew Point: 35°   Wind: 9mph
Humidity: 100%   Direction: 90°E
Pressure: 29.51"   Gusts: NA
Location:  42.47°N, 92.28°W
Report Text: KALO 230254Z AUTO 09008KT 1 1/4SM R12/3500V4500FT -RA BR OVC002 02/02 A2951 RMK AO2 SLP998 P0000 60000 T00170017 56005
Loading
Personal Weather Stations






























Interactive Weather Map New forecast layout! Learn more

10-Day Weather Forecast

Advertisements
Track Severe Weather on mobile